Tachikawa Air Base, Japan

6:21 PM JST on March 03, 2015 (GMT +0900)
ITOKYOHI1 | Change Station
CLOSE
Current Station
Personal Weather Station
Location: %u65E5%u91CE%u5E02, %u6771%u4EAC%u90FD
Elevation: 282 ft
Nearby Weather Stations

Elev 282 ft 35.66 °N, 139.40 °E | Updated 8 seconds ago

Overcast
Overcast
41.0 °F
Feels Like 41 °F
N
1.2
Wind Variable Wind from WSW
Gusts 1.3 mph

Today
High -- | Low -- °F
--% Chance of Precip.
Yesterday
High -- | Low -- °F
Precip. -- in
6:10 AM 5:38 PM
Waxing Gibbous, 95% visible
Pressure 30.14 in
Visibility 10.0 miles
Clouds Overcast 2700 ft
Windchill 41 °F
Dew Point 32 °F
Humidity 69%
Rainfall 0.00 in
Snow Depth Not available.
UV 0 out of 12
Pollen Not available.
Air Quality Not available.
Flu Activity Not available.
METAR RJTY 030858Z AUTO 36004KT 10SM OVC027 05/00 A3010 RMK AO2 SLP204 T00501002 57019

More Conditions Fewer Conditions

Pressure 30.14 in
Visibility 10.0 miles
Clouds Overcast 2700 ft
Windchill 41 °F
Dew Point 32 °F
Humidity 69%
Rainfall 0.00 in
Snow Depth Not available.
UV 0 out of 12
Pollen Not available.
Air Quality Not available.
Flu Activity Not available.
METAR RJTY 030858Z AUTO 36004KT 10SM OVC027 05/00 A3010 RMK AO2 SLP204 T00501002 57019

More Conditions Fewer Conditions

10-Day Weather Forecast

Almanac

Astronomy

Mar. 03, 2015 Rise Set
Actual Time
Civil Twilight
Nautical Twilight
Astronomical Twilight
Moon
Length of Visible Light
Length of Day
Tomorrow will be .
, % of the Moon is Illuminated

Today's Extremes

Country Highs Country Lows

Community

WunderPhotos

Upload Photos

1,802,075 photos uploaded!

WunderBlogs® & News

Nearby

Air Quality

  Air Quality AQ Index Pollutant
Not available.

Snow Depth

Station Depth Elevation

Earthquake Activity

City Distance Mag. Time & Date
Minimum magnitude displayed is 2.5.

Coastal Water Temperatures

Place Temperature

Nearby Weather Stations